sensor_id;sensor_type;location;lat;lon;timestamp;temperature;humidity
52397;DHT22;38322;53.108;6.308;2022-12-26T06:01:13;8.10;99.90
52397;DHT22;38322;53.108;6.308;2022-12-26T06:03:40;8.10;99.90
52397;DHT22;38322;53.108;6.308;2022-12-26T06:06:08;8.10;99.90
52397;DHT22;38322;53.108;6.308;2022-12-26T06:08:35;8.10;99.90
52397;DHT22;38322;53.108;6.308;2022-12-26T06:11:03;8.10;99.90
52397;DHT22;38322;53.108;6.308;2022-12-26T06:13:29;8.10;99.90
52397;DHT22;38322;53.108;6.308;2022-12-26T06:15:55;8.10;99.90
52397;DHT22;38322;53.108;6.308;2022-12-26T06:18:21;8.10;99.90
52397;DHT22;38322;53.108;6.308;2022-12-26T06:20:47;8.10;99.90
52397;DHT22;38322;53.108;6.308;2022-12-26T06:23:12;8.10;99.90
52397;DHT22;38322;53.108;6.308;2022-12-26T06:25:38;8.20;99.90
52397;DHT22;38322;53.108;6.308;2022-12-26T06:28:04;8.10;99.90
52397;DHT22;38322;53.108;6.308;2022-12-26T06:30:30;8.10;99.90
52397;DHT22;38322;53.108;6.308;2022-12-26T06:32:55;8.10;99.90
52397;DHT22;38322;53.108;6.308;2022-12-26T06:35:21;8.10;99.90
52397;DHT22;38322;53.108;6.308;2022-12-26T06:37:47;8.20;99.90
52397;DHT22;38322;53.108;6.308;2022-12-26T06:40:13;8.20;99.90
52397;DHT22;38322;53.108;6.308;2022-12-26T06:42:39;8.20;99.90
52397;DHT22;38322;53.108;6.308;2022-12-26T06:45:05;8.20;99.90
52397;DHT22;38322;53.108;6.308;2022-12-26T06:47:30;8.20;99.90
52397;DHT22;38322;53.108;6.308;2022-12-26T06:49:56;8.20;99.90
52397;DHT22;38322;53.108;6.308;2022-12-26T06:52:22;8.20;99.90
52397;DHT22;38322;53.108;6.308;2022-12-26T06:54:48;8.20;99.90
52397;DHT22;38322;53.108;6.308;2022-12-26T06:57:14;8.20;99.90
52397;DHT22;38322;53.108;6.308;2022-12-26T06:59:39;8.20;99.90
52397;DHT22;38322;53.108;6.308;2022-12-26T07:02:05;8.20;99.90
52397;DHT22;38322;53.108;6.308;2022-12-26T07:04:31;8.20;99.90
52397;DHT22;38322;53.108;6.308;2022-12-26T07:06:57;8.20;99.90
52397;DHT22;38322;53.108;6.308;2022-12-26T07:09:22;8.30;99.90
52397;DHT22;38322;53.108;6.308;2022-12-26T07:11:50;8.30;99.90
52397;DHT22;38322;53.108;6.308;2022-12-26T07:14:16;8.30;99.90
52397;DHT22;38322;53.108;6.308;2022-12-26T07:16:43;8.30;99.90
52397;DHT22;38322;53.108;6.308;2022-12-26T07:19:11;8.30;99.90
52397;DHT22;38322;53.108;6.308;2022-12-26T07:21:37;8.30;99.90
52397;DHT22;38322;53.108;6.308;2022-12-26T07:24:03;8.30;99.90
52397;DHT22;38322;53.108;6.308;2022-12-26T07:26:29;8.20;99.90
52397;DHT22;38322;53.108;6.308;2022-12-26T07:28:57;8.20;99.90
52397;DHT22;38322;53.108;6.308;2022-12-26T07:31:24;8.20;99.90
52397;DHT22;38322;53.108;6.308;2022-12-26T07:33:52;8.10;99.90
52397;DHT22;38322;53.108;6.308;2022-12-26T07:36:18;8.10;99.90
52397;DHT22;38322;53.108;6.308;2022-12-26T07:38:45;8.10;99.90
52397;DHT22;38322;53.108;6.308;2022-12-26T07:41:11;8.10;99.90
52397;DHT22;38322;53.108;6.308;2022-12-26T07:43:55;8.10;99.90
52397;DHT22;38322;53.108;6.308;2022-12-26T07:46:21;8.10;99.90
52397;DHT22;38322;53.108;6.308;2022-12-26T07:48:47;8.10;99.90
52397;DHT22;38322;53.108;6.308;2022-12-26T07:51:13;8.10;99.90
52397;DHT22;38322;53.108;6.308;2022-12-26T07:53:38;8.20;99.90
52397;DHT22;38322;53.108;6.308;2022-12-26T07:56:05;8.20;99.90
52397;DHT22;38322;53.108;6.308;2022-12-26T07:58:31;8.20;99.90
52397;DHT22;38322;53.108;6.308;2022-12-26T08:01:01;8.20;99.90
52397;DHT22;38322;53.108;6.308;2022-12-26T08:03:28;8.30;99.90
52397;DHT22;38322;53.108;6.308;2022-12-26T08:05:54;8.30;99.90
52397;DHT22;38322;53.108;6.308;2022-12-26T08:08:20;8.30;99.90
52397;DHT22;38322;53.108;6.308;2022-12-26T08:10:46;8.30;99.90
52397;DHT22;38322;53.108;6.308;2022-12-26T08:13:12;8.30;99.90
52397;DHT22;38322;53.108;6.308;2022-12-26T08:15:38;8.30;99.90
52397;DHT22;38322;53.108;6.308;2022-12-26T08:18:05;8.30;99.90
52397;DHT22;38322;53.108;6.308;2022-12-26T08:20:31;8.30;99.90
52397;DHT22;38322;53.108;6.308;2022-12-26T08:22:57;8.30;99.90
52397;DHT22;38322;53.108;6.308;2022-12-26T08:25:23;8.30;99.90
52397;DHT22;38322;53.108;6.308;2022-12-26T08:27:49;8.40;99.90
52397;DHT22;38322;53.108;6.308;2022-12-26T08:30:15;8.40;99.90
52397;DHT22;38322;53.108;6.308;2022-12-26T08:32:41;8.40;99.90
52397;DHT22;38322;53.108;6.308;2022-12-26T08:35:07;8.40;99.90
52397;DHT22;38322;53.108;6.308;2022-12-26T08:37:33;8.40;99.90
52397;DHT22;38322;53.108;6.308;2022-12-26T08:39:59;8.40;99.90
52397;DHT22;38322;53.108;6.308;2022-12-26T08:42:25;8.50;99.90
52397;DHT22;38322;53.108;6.308;2022-12-26T08:44:50;8.50;99.90
52397;DHT22;38322;53.108;6.308;2022-12-26T08:47:16;8.40;99.90
52397;DHT22;38322;53.108;6.308;2022-12-26T08:49:42;8.40;99.90
52397;DHT22;38322;53.108;6.308;2022-12-26T08:52:08;8.50;99.90
52397;DHT22;38322;53.108;6.308;2022-12-26T08:54:34;8.40;99.90
52397;DHT22;38322;53.108;6.308;2022-12-26T08:57:00;8.40;99.90
52397;DHT22;38322;53.108;6.308;2022-12-26T08:59:26;8.40;99.90
52397;DHT22;38322;53.108;6.308;2022-12-26T09:01:51;8.40;99.90
52397;DHT22;38322;53.108;6.308;2022-12-26T09:04:17;8.40;99.90
52397;DHT22;38322;53.108;6.308;2022-12-26T09:06:43;8.40;99.90
52397;DHT22;38322;53.108;6.308;2022-12-26T09:09:10;8.40;99.90
52397;DHT22;38322;53.108;6.308;2022-12-26T09:11:37;8.40;99.90
52397;DHT22;38322;53.108;6.308;2022-12-26T09:14:04;8.40;99.90
52397;DHT22;38322;53.108;6.308;2022-12-26T09:16:33;8.40;99.90
52397;DHT22;38322;53.108;6.308;2022-12-26T09:19:02;8.40;99.90
52397;DHT22;38322;53.108;6.308;2022-12-26T09:21:28;8.40;99.90
52397;DHT22;38322;53.108;6.308;2022-12-26T09:24:07;8.40;99.90
52397;DHT22;38322;53.108;6.308;2022-12-26T09:26:34;8.50;99.90
52397;DHT22;38322;53.108;6.308;2022-12-26T09:29:00;8.50;99.90
52397;DHT22;38322;53.108;6.308;2022-12-26T09:31:28;8.50;99.90
52397;DHT22;38322;53.108;6.308;2022-12-26T09:33:55;8.50;99.90
52397;DHT22;38322;53.108;6.308;2022-12-26T09:36:27;8.50;99.90
52397;DHT22;38322;53.108;6.308;2022-12-26T09:38:55;8.50;99.90
52397;DHT22;38322;53.108;6.308;2022-12-26T09:49:24;8.00;99.90
52397;DHT22;38322;53.108;6.308;2022-12-26T09:51:55;7.80;99.90
52397;DHT22;38322;53.108;6.308;2022-12-26T09:54:33;7.70;99.90
52397;DHT22;38322;53.108;6.308;2022-12-26T09:57:05;7.50;99.90
52397;DHT22;38322;53.108;6.308;2022-12-26T09:59:48;7.30;99.90
52397;DHT22;38322;53.108;6.308;2022-12-26T10:02:20;7.20;99.90
52397;DHT22;38322;53.108;6.308;2022-12-26T10:04:46;7.20;99.90
52397;DHT22;38322;53.108;6.308;2022-12-26T10:07:24;7.10;99.90
52397;DHT22;38322;53.108;6.308;2022-12-26T10:09:57;7.00;99.90
52397;DHT22;38322;53.108;6.308;2022-12-26T10:12:45;7.00;99.90
52397;DHT22;38322;53.108;6.308;2022-12-26T10:15:43;6.90;99.90
52397;DHT22;38322;53.108;6.308;2022-12-26T10:18:23;7.00;99.90
52397;DHT22;38322;53.108;6.308;2022-12-26T10:24:02;7.00;99.90
52397;DHT22;38322;53.108;6.308;2022-12-26T10:26:34;7.10;99.90
52397;DHT22;38322;53.108;6.308;2022-12-26T10:29:10;7.10;99.90
52397;DHT22;38322;53.108;6.308;2022-12-26T10:31:39;7.10;99.90
52397;DHT22;38322;53.108;6.308;2022-12-26T10:34:25;7.00;99.90
52397;DHT22;38322;53.108;6.308;2022-12-26T10:37:15;7.00;99.90
52397;DHT22;38322;53.108;6.308;2022-12-26T10:39:51;7.00;99.90
52397;DHT22;38322;53.108;6.308;2022-12-26T10:44:54;7.00;99.90
52397;DHT22;38322;53.108;6.308;2022-12-26T10:47:47;7.00;99.90
52397;DHT22;38322;53.108;6.308;2022-12-26T10:50:25;6.90;99.90
52397;DHT22;38322;53.108;6.308;2022-12-26T10:52:52;6.90;99.90
52397;DHT22;38322;53.108;6.308;2022-12-26T10:55:19;6.80;99.90
52397;DHT22;38322;53.108;6.308;2022-12-26T10:57:51;6.80;99.90
52397;DHT22;38322;53.108;6.308;2022-12-26T11:00:22;6.80;99.90
52397;DHT22;38322;53.108;6.308;2022-12-26T11:03:15;6.80;99.90
52397;DHT22;38322;53.108;6.308;2022-12-26T11:05:52;6.80;99.90
52397;DHT22;38322;53.108;6.308;2022-12-26T11:08:46;6.80;99.90
52397;DHT22;38322;53.108;6.308;2022-12-26T11:11:23;6.90;99.90
52397;DHT22;38322;53.108;6.308;2022-12-26T11:13:54;6.90;99.90
52397;DHT22;38322;53.108;6.308;2022-12-26T11:18:51;6.90;99.90
52397;DHT22;38322;53.108;6.308;2022-12-26T11:23:50;7.00;99.90
52397;DHT22;38322;53.108;6.308;2022-12-26T11:26:25;7.00;99.90
52397;DHT22;38322;53.108;6.308;2022-12-26T11:29:23;7.00;99.90
52397;DHT22;38322;53.108;6.308;2022-12-26T11:31:57;7.00;99.90
52397;DHT22;38322;53.108;6.308;2022-12-26T11:34:38;6.90;99.90
52397;DHT22;38322;53.108;6.308;2022-12-26T11:37:30;6.90;99.90
52397;DHT22;38322;53.108;6.308;2022-12-26T11:39:59;6.90;99.90
52397;DHT22;38322;53.108;6.308;2022-12-26T11:42:26;7.00;99.90
52397;DHT22;38322;53.108;6.308;2022-12-26T11:44:54;7.00;99.90
52397;DHT22;38322;53.108;6.308;2022-12-26T11:47:24;7.10;99.90
52397;DHT22;38322;53.108;6.308;2022-12-26T11:50:05;7.10;99.90
52397;DHT22;38322;53.108;6.308;2022-12-26T11:52:42;7.00;99.90
52397;DHT22;38322;53.108;6.308;2022-12-26T12:00:27;7.10;99.90
52397;DHT22;38322;53.108;6.308;2022-12-26T12:02:53;7.10;99.90
52397;DHT22;38322;53.108;6.308;2022-12-26T12:10:50;7.10;99.90
52397;DHT22;38322;53.108;6.308;2022-12-26T12:27:03;7.20;99.90
52397;DHT22;38322;53.108;6.308;2022-12-26T12:35:07;7.10;99.90
52397;DHT22;38322;53.108;6.308;2022-12-26T12:40:58;7.00;99.90
52397;DHT22;38322;53.108;6.308;2022-12-26T12:46:13;7.00;99.90
52397;DHT22;38322;53.108;6.308;2022-12-26T13:02:14;6.90;99.90
52397;DHT22;38322;53.108;6.308;2022-12-26T13:04:44;6.90;99.90
52397;DHT22;38322;53.108;6.308;2022-12-26T13:07:32;6.90;99.90
52397;DHT22;38322;53.108;6.308;2022-12-26T13:10:02;7.00;99.90
52397;DHT22;38322;53.108;6.308;2022-12-26T13:12:36;7.00;99.90
52397;DHT22;38322;53.108;6.308;2022-12-26T13:15:28;7.10;99.90
52397;DHT22;38322;53.108;6.308;2022-12-26T13:18:20;7.10;99.90
52397;DHT22;38322;53.108;6.308;2022-12-26T13:20:51;7.00;99.90
52397;DHT22;38322;53.108;6.308;2022-12-26T13:23:28;7.00;99.90
52397;DHT22;38322;53.108;6.308;2022-12-26T13:26:23;6.90;99.90
52397;DHT22;38322;53.108;6.308;2022-12-26T13:31:38;6.80;99.90
52397;DHT22;38322;53.108;6.308;2022-12-26T13:34:09;6.80;99.90
52397;DHT22;38322;53.108;6.308;2022-12-26T13:36:40;6.70;99.90
52397;DHT22;38322;53.108;6.308;2022-12-26T13:41:33;6.60;99.90
52397;DHT22;38322;53.108;6.308;2022-12-26T13:49:38;6.50;99.90
52397;DHT22;38322;53.108;6.308;2022-12-26T13:57:35;6.40;99.90
52397;DHT22;38322;53.108;6.308;2022-12-26T14:00:22;6.40;99.90
52397;DHT22;38322;53.108;6.308;2022-12-26T14:06:41;6.30;99.90
52397;DHT22;38322;53.108;6.308;2022-12-26T14:12:20;6.10;99.90
52397;DHT22;38322;53.108;6.308;2022-12-26T14:15:02;6.10;99.90
52397;DHT22;38322;53.108;6.308;2022-12-26T14:23:48;5.90;99.90
52397;DHT22;38322;53.108;6.308;2022-12-26T14:40:36;5.60;99.90
52397;DHT22;38322;53.108;6.308;2022-12-26T14:45:57;5.60;99.90
52397;DHT22;38322;53.108;6.308;2022-12-26T14:53:40;5.60;99.90
52397;DHT22;38322;53.108;6.308;2022-12-26T14:58:50;5.60;99.90
52397;DHT22;38322;53.108;6.308;2022-12-26T15:09:41;5.40;99.90
52397;DHT22;38322;53.108;6.308;2022-12-26T15:15:30;5.30;99.90
52397;DHT22;38322;53.108;6.308;2022-12-26T15:29:11;5.10;99.90
52397;DHT22;38322;53.108;6.308;2022-12-26T15:31:53;5.10;99.90
52397;DHT22;38322;53.108;6.308;2022-12-26T15:40:22;5.00;99.90
52397;DHT22;38322;53.108;6.308;2022-12-26T15:43:00;4.90;99.90
52397;DHT22;38322;53.108;6.308;2022-12-26T15:51:11;4.70;99.90
52397;DHT22;38322;53.108;6.308;2022-12-26T16:02:38;4.50;99.90
52397;DHT22;38322;53.108;6.308;2022-12-26T16:10:41;4.40;99.90
52397;DHT22;38322;53.108;6.308;2022-12-26T16:15:55;4.40;99.90
52397;DHT22;38322;53.108;6.308;2022-12-26T16:18:28;4.40;99.90
52397;DHT22;38322;53.108;6.308;2022-12-26T16:20:58;4.30;99.90
52397;DHT22;38322;53.108;6.308;2022-12-26T16:23:44;4.30;99.90
52397;DHT22;38322;53.108;6.308;2022-12-26T16:26:22;4.30;99.90
52397;DHT22;38322;53.108;6.308;2022-12-26T16:28:49;4.30;99.90
52397;DHT22;38322;53.108;6.308;2022-12-26T16:31:26;4.30;99.90
52397;DHT22;38322;53.108;6.308;2022-12-26T16:33:54;4.30;99.90
52397;DHT22;38322;53.108;6.308;2022-12-26T16:36:32;4.40;99.90
52397;DHT22;38322;53.108;6.308;2022-12-26T16:39:00;4.40;99.90
52397;DHT22;38322;53.108;6.308;2022-12-26T16:41:29;4.40;99.90
52397;DHT22;38322;53.108;6.308;2022-12-26T16:43:56;4.40;99.90
52397;DHT22;38322;53.108;6.308;2022-12-26T16:46:26;4.40;99.90
52397;DHT22;38322;53.108;6.308;2022-12-26T16:48:59;4.40;99.90
52397;DHT22;38322;53.108;6.308;2022-12-26T16:51:46;4.30;99.90
52397;DHT22;38322;53.108;6.308;2022-12-26T17:02:23;4.30;99.90
52397;DHT22;38322;53.108;6.308;2022-12-26T17:05:01;4.20;99.90
52397;DHT22;38322;53.108;6.308;2022-12-26T17:07:28;4.20;99.90
52397;DHT22;38322;53.108;6.308;2022-12-26T17:09:57;4.20;99.90
52397;DHT22;38322;53.108;6.308;2022-12-26T17:12:43;4.20;99.90
52397;DHT22;38322;53.108;6.308;2022-12-26T17:15:27;4.10;99.90
52397;DHT22;38322;53.108;6.308;2022-12-26T17:17:54;4.00;99.90
52397;DHT22;38322;53.108;6.308;2022-12-26T17:22:48;4.00;99.90
52397;DHT22;38322;53.108;6.308;2022-12-26T17:27:45;3.90;99.90
52397;DHT22;38322;53.108;6.308;2022-12-26T17:30:29;3.80;99.90
52397;DHT22;38322;53.108;6.308;2022-12-26T17:33:11;3.80;99.90
52397;DHT22;38322;53.108;6.308;2022-12-26T17:35:39;3.80;99.90
52397;DHT22;38322;53.108;6.308;2022-12-26T17:38:12;3.70;99.90
52397;DHT22;38322;53.108;6.308;2022-12-26T17:40:40;3.70;99.90
52397;DHT22;38322;53.108;6.308;2022-12-26T17:43:22;3.70;99.90
52397;DHT22;38322;53.108;6.308;2022-12-26T17:45:48;3.70;99.90
52397;DHT22;38322;53.108;6.308;2022-12-26T17:48:14;3.70;99.90
52397;DHT22;38322;53.108;6.308;2022-12-26T17:50:43;3.70;99.90
52397;DHT22;38322;53.108;6.308;2022-12-26T17:53:28;3.60;99.90
52397;DHT22;38322;53.108;6.308;2022-12-26T17:56:01;3.60;99.90
52397;DHT22;38322;53.108;6.308;2022-12-26T17:58:28;3.60;99.90
52397;DHT22;38322;53.108;6.308;2022-12-26T18:00:54;3.60;99.90
52397;DHT22;38322;53.108;6.308;2022-12-26T18:03:21;3.70;99.90
52397;DHT22;38322;53.108;6.308;2022-12-26T18:05:47;3.60;99.90
52397;DHT22;38322;53.108;6.308;2022-12-26T18:10:51;3.70;99.90
52397;DHT22;38322;53.108;6.308;2022-12-26T18:13:17;3.70;99.90
52397;DHT22;38322;53.108;6.308;2022-12-26T18:15:43;3.70;99.90
52397;DHT22;38322;53.108;6.308;2022-12-26T18:18:38;3.70;99.90
52397;DHT22;38322;53.108;6.308;2022-12-26T18:21:07;3.80;99.90
52397;DHT22;38322;53.108;6.308;2022-12-26T18:23:34;3.80;99.90
52397;DHT22;38322;53.108;6.308;2022-12-26T18:26:02;3.80;99.90
52397;DHT22;38322;53.108;6.308;2022-12-26T18:28:28;3.80;99.90
52397;DHT22;38322;53.108;6.308;2022-12-26T18:30:55;3.80;99.90
52397;DHT22;38322;53.108;6.308;2022-12-26T18:33:22;3.70;99.90
52397;DHT22;38322;53.108;6.308;2022-12-26T18:35:48;3.70;99.90
52397;DHT22;38322;53.108;6.308;2022-12-26T18:38:16;3.70;99.90
52397;DHT22;38322;53.108;6.308;2022-12-26T18:40:45;3.70;99.90
52397;DHT22;38322;53.108;6.308;2022-12-26T18:43:12;3.60;99.90
52397;DHT22;38322;53.108;6.308;2022-12-26T18:45:38;3.60;99.90
52397;DHT22;38322;53.108;6.308;2022-12-26T18:48:06;3.60;99.90
52397;DHT22;38322;53.108;6.308;2022-12-26T18:50:34;3.50;99.90
52397;DHT22;38322;53.108;6.308;2022-12-26T18:53:00;3.50;99.90
52397;DHT22;38322;53.108;6.308;2022-12-26T18:55:26;3.50;99.90
52397;DHT22;38322;53.108;6.308;2022-12-26T18:57:53;3.50;99.90
52397;DHT22;38322;53.108;6.308;2022-12-26T19:00:20;3.40;99.90
52397;DHT22;38322;53.108;6.308;2022-12-26T19:02:47;3.40;99.90
52397;DHT22;38322;53.108;6.308;2022-12-26T19:05:19;3.40;99.90
52397;DHT22;38322;53.108;6.308;2022-12-26T19:07:45;3.40;99.90
52397;DHT22;38322;53.108;6.308;2022-12-26T19:10:14;3.40;99.90
52397;DHT22;38322;53.108;6.308;2022-12-26T19:12:41;3.40;99.90
52397;DHT22;38322;53.108;6.308;2022-12-26T19:15:08;3.50;99.90
52397;DHT22;38322;53.108;6.308;2022-12-26T19:17:34;3.50;99.90
52397;DHT22;38322;53.108;6.308;2022-12-26T19:20:01;3.50;99.90
52397;DHT22;38322;53.108;6.308;2022-12-26T19:22:26;3.60;99.90
52397;DHT22;38322;53.108;6.308;2022-12-26T19:24:52;3.50;99.90
52397;DHT22;38322;53.108;6.308;2022-12-26T19:27:18;3.50;99.90
52397;DHT22;38322;53.108;6.308;2022-12-26T19:29:44;3.50;99.90
52397;DHT22;38322;53.108;6.308;2022-12-26T19:32:10;3.50;99.90
52397;DHT22;38322;53.108;6.308;2022-12-26T19:34:36;3.50;99.90
52397;DHT22;38322;53.108;6.308;2022-12-26T19:37:01;3.50;99.90
52397;DHT22;38322;53.108;6.308;2022-12-26T19:39:27;3.50;99.90
52397;DHT22;38322;53.108;6.308;2022-12-26T19:41:54;3.50;99.90
52397;DHT22;38322;53.108;6.308;2022-12-26T19:44:19;3.50;99.90
52397;DHT22;38322;53.108;6.308;2022-12-26T19:46:45;3.50;99.90
52397;DHT22;38322;53.108;6.308;2022-12-26T19:49:12;3.50;99.90
52397;DHT22;38322;53.108;6.308;2022-12-26T19:51:37;3.40;99.90
52397;DHT22;38322;53.108;6.308;2022-12-26T19:54:04;3.40;99.90
52397;DHT22;38322;53.108;6.308;2022-12-26T19:56:32;3.40;99.90
52397;DHT22;38322;53.108;6.308;2022-12-26T19:58:58;3.30;99.90
52397;DHT22;38322;53.108;6.308;2022-12-26T20:01:27;3.30;99.90
52397;DHT22;38322;53.108;6.308;2022-12-26T20:04:01;3.30;99.90
52397;DHT22;38322;53.108;6.308;2022-12-26T20:06:30;3.30;99.90
52397;DHT22;38322;53.108;6.308;2022-12-26T20:08:58;3.30;99.90
52397;DHT22;38322;53.108;6.308;2022-12-26T20:11:32;3.30;99.90
52397;DHT22;38322;53.108;6.308;2022-12-26T20:14:02;3.20;99.90
52397;DHT22;38322;53.108;6.308;2022-12-26T20:16:29;3.20;99.90
52397;DHT22;38322;53.108;6.308;2022-12-26T20:18:55;3.20;99.90
52397;DHT22;38322;53.108;6.308;2022-12-26T20:21:21;3.20;99.90
52397;DHT22;38322;53.108;6.308;2022-12-26T20:23:48;3.20;99.90
52397;DHT22;38322;53.108;6.308;2022-12-26T20:26:17;3.20;99.90
52397;DHT22;38322;53.108;6.308;2022-12-26T20:28:44;3.20;99.90
52397;DHT22;38322;53.108;6.308;2022-12-26T20:31:15;3.20;99.90
52397;DHT22;38322;53.108;6.308;2022-12-26T20:33:43;3.10;99.90
52397;DHT22;38322;53.108;6.308;2022-12-26T20:38:41;3.00;99.90
52397;DHT22;38322;53.108;6.308;2022-12-26T20:41:07;3.00;99.90
52397;DHT22;38322;53.108;6.308;2022-12-26T20:43:34;3.00;99.90
52397;DHT22;38322;53.108;6.308;2022-12-26T20:46:08;2.90;99.90
52397;DHT22;38322;53.108;6.308;2022-12-26T20:48:35;3.00;99.90
52397;DHT22;38322;53.108;6.308;2022-12-26T20:51:04;3.10;99.90
52397;DHT22;38322;53.108;6.308;2022-12-26T20:53:31;3.10;99.90
52397;DHT22;38322;53.108;6.308;2022-12-26T20:55:57;3.20;99.90
52397;DHT22;38322;53.108;6.308;2022-12-26T20:58:25;3.20;99.90
